Cherokee, North Carolina
Current Conditions -  °F | °C
As of 8:55 AM on Monday 24 Nov 2014 (Local Time) from KGKT Reporting Station
Clear Clear  
Wind Chill: 66°   Ceiling: Unl
Heat Index: 66°   Visibility: 10mi
Dew Point: 45°   Wind: 15mph
Humidity: 46%   Direction: 220°SW
Pressure: 29.64"   Gusts: NA
Location:  35.47°N, 83.31°W
Report Text: KGKT 241355Z AUTO 22013KT 10SM CLR 19/07 A2964 RMK
Loading
Personal Weather Stations






























Interactive Weather Map New forecast layout! Learn more

10-Day Weather Forecast

Advertisements
Track Severe Weather on mobile